createdAt,value
2023-04-16T00:00:15.776Z,9.23
2023-04-16T00:01:22.772Z,9.20
2023-04-16T00:02:15.893Z,9.24
2023-04-16T00:03:15.912Z,9.23
2023-04-16T00:04:15.790Z,9.23
2023-04-16T00:05:15.771Z,9.21
2023-04-16T00:06:15.722Z,9.23
2023-04-16T00:07:15.731Z,9.23
2023-04-16T00:08:15.729Z,9.25
2023-04-16T00:09:15.680Z,9.24
2023-04-16T00:10:15.669Z,9.23
2023-04-16T00:11:15.645Z,9.25
2023-04-16T00:12:15.650Z,9.25
2023-04-16T00:13:15.662Z,9.24
2023-04-16T00:14:15.650Z,9.27
2023-04-16T00:15:15.624Z,9.28
2023-04-16T00:16:15.658Z,9.28
2023-04-16T00:17:15.593Z,9.30
2023-04-16T00:18:15.670Z,9.28
2023-04-16T00:19:16.041Z,9.28
2023-04-16T00:20:15.577Z,9.27
2023-04-16T00:21:15.544Z,9.27
2023-04-16T00:22:15.532Z,9.27
2023-04-16T00:23:15.521Z,9.25
2023-04-16T00:24:15.540Z,9.25
2023-04-16T00:25:15.497Z,9.27
2023-04-16T00:26:15.498Z,9.27
2023-04-16T00:27:15.474Z,9.27
2023-04-16T00:28:15.472Z,9.27
2023-04-16T00:29:15.456Z,9.27
2023-04-16T00:30:15.468Z,9.25
2023-04-16T00:31:15.477Z,9.25
2023-04-16T00:32:15.420Z,9.24
2023-04-16T00:33:15.422Z,9.25
2023-04-16T00:34:15.416Z,9.24
2023-04-16T00:35:15.432Z,9.24
2023-04-16T00:36:15.386Z,9.25
2023-04-16T00:37:15.363Z,9.25
2023-04-16T00:38:15.367Z,9.24
2023-04-16T00:39:15.341Z,9.27
2023-04-16T00:40:15.359Z,9.25
2023-04-16T00:41:15.321Z,9.24
2023-04-16T00:42:15.327Z,9.25
2023-04-16T00:43:15.299Z,9.24
2023-04-16T00:44:15.286Z,9.27
2023-04-16T00:45:15.321Z,9.25
2023-04-16T00:46:15.311Z,9.27
2023-04-16T00:47:15.314Z,9.28
2023-04-16T00:48:15.242Z,9.31
2023-04-16T00:49:15.250Z,9.30
2023-04-16T00:50:15.226Z,9.31
2023-04-16T00:51:15.264Z,9.30
2023-04-16T00:52:15.194Z,9.30
2023-04-16T00:53:15.195Z,9.27
2023-04-16T00:54:15.188Z,9.28
2023-04-16T00:55:15.174Z,9.30
2023-04-16T00:56:15.216Z,9.30
2023-04-16T00:57:15.146Z,9.31
2023-04-16T00:58:15.131Z,9.31
2023-04-16T00:59:15.128Z,9.32
2023-04-16T01:00:15.124Z,9.30
2023-04-16T01:01:15.142Z,9.32
2023-04-16T01:02:15.270Z,9.30
2023-04-16T01:03:15.227Z,9.28
2023-04-16T01:04:15.236Z,9.28
2023-04-16T01:05:15.057Z,9.27
2023-04-16T01:06:15.043Z,9.30
2023-04-16T01:07:15.031Z,9.28
2023-04-16T01:08:15.052Z,9.28
2023-04-16T01:09:15.035Z,9.30
2023-04-16T01:10:15.013Z,9.30
2023-04-16T01:11:14.996Z,9.32
2023-04-16T01:12:15.023Z,9.30
2023-04-16T01:13:14.981Z,9.30
2023-04-16T01:14:15.005Z,9.30
2023-04-16T01:15:14.955Z,9.31
2023-04-16T01:16:14.979Z,9.30
2023-04-16T01:17:15.047Z,9.28
2023-04-16T01:18:14.921Z,9.30
2023-04-16T01:19:14.892Z,9.32
2023-04-16T01:20:14.946Z,9.31
2023-04-16T01:21:14.887Z,9.32
2023-04-16T01:22:14.891Z,9.31
2023-04-16T01:23:14.872Z,9.31
2023-04-16T01:24:14.865Z,9.32
2023-04-16T01:25:14.871Z,9.31
2023-04-16T01:26:14.829Z,9.30
2023-04-16T01:27:14.837Z,9.28
2023-04-16T01:28:14.814Z,9.27
2023-04-16T01:29:14.799Z,9.25
2023-04-16T01:30:14.811Z,9.24
2023-04-16T01:31:14.835Z,9.24
2023-04-16T01:32:14.755Z,9.24
2023-04-16T01:33:14.751Z,9.25
2023-04-16T01:34:14.737Z,9.25
2023-04-16T01:35:14.745Z,9.25
2023-04-16T01:36:14.753Z,9.28
2023-04-16T01:37:14.725Z,9.28
2023-04-16T01:38:14.702Z,9.30
2023-04-16T01:39:14.689Z,9.30
2023-04-16T01:40:14.676Z,9.30
2023-04-16T01:41:14.704Z,9.31
2023-04-16T01:42:14.647Z,9.31
2023-04-16T01:43:14.672Z,9.28
2023-04-16T01:44:14.628Z,9.31
2023-04-16T01:45:14.658Z,9.32
2023-04-16T01:46:14.620Z,9.31
2023-04-16T01:47:14.614Z,9.32
2023-04-16T01:48:14.584Z,9.34
2023-04-16T01:49:14.584Z,9.34
2023-04-16T01:50:14.555Z,9.34
2023-04-16T01:51:14.556Z,9.34
2023-04-16T01:52:14.568Z,9.35
2023-04-16T01:53:14.527Z,9.38
2023-04-16T01:54:14.542Z,9.35
2023-04-16T01:55:14.531Z,9.34
2023-04-16T01:56:14.512Z,9.32
2023-04-16T01:57:14.491Z,9.34
2023-04-16T01:58:14.528Z,9.34
2023-04-16T01:59:14.464Z,9.35
2023-04-16T02:00:14.442Z,9.35
2023-04-16T02:01:14.511Z,9.38
2023-04-16T02:02:14.516Z,9.35
2023-04-16T02:03:14.557Z,9.39
2023-04-16T02:04:14.436Z,9.39
2023-04-16T02:05:14.410Z,9.39
2023-04-16T02:06:14.380Z,9.39
2023-04-16T02:07:14.368Z,9.40
2023-04-16T02:08:14.386Z,9.40
2023-04-16T02:09:14.351Z,9.42
2023-04-16T02:10:14.336Z,9.43
2023-04-16T02:11:14.328Z,9.43
2023-04-16T02:12:14.372Z,9.42
2023-04-16T02:13:14.296Z,9.45
2023-04-16T02:14:14.308Z,9.45
2023-04-16T02:15:14.281Z,9.46
2023-04-16T02:16:14.284Z,9.46
2023-04-16T02:17:14.254Z,9.46
2023-04-16T02:18:14.254Z,9.46
2023-04-16T02:19:14.263Z,9.46
2023-04-16T02:20:14.228Z,9.46
2023-04-16T02:21:14.213Z,9.45
2023-04-16T02:22:14.201Z,9.46
2023-04-16T02:23:14.189Z,9.45
2023-04-16T02:24:14.186Z,9.45
2023-04-16T02:25:14.226Z,9.43
2023-04-16T02:26:14.146Z,9.43
2023-04-16T02:27:14.148Z,9.43
2023-04-16T02:28:14.152Z,9.45
2023-04-16T02:29:14.140Z,9.45
2023-04-16T02:30:14.111Z,9.45
2023-04-16T02:31:14.137Z,9.43
2023-04-16T02:32:14.143Z,9.43
2023-04-16T02:33:14.074Z,9.45
2023-04-16T02:34:14.058Z,9.45
2023-04-16T02:35:14.075Z,9.45
2023-04-16T02:36:14.044Z,9.45
2023-04-16T02:37:14.032Z,9.45
2023-04-16T02:38:14.019Z,9.45
2023-04-16T02:39:14.002Z,9.45
2023-04-16T02:40:14.024Z,9.45
2023-04-16T02:41:13.992Z,9.45
2023-04-16T02:42:13.979Z,9.45
2023-04-16T02:43:13.961Z,9.45
2023-04-16T02:44:13.975Z,9.43
2023-04-16T02:45:13.955Z,9.45
2023-04-16T02:46:13.997Z,9.42
2023-04-16T02:47:13.921Z,9.40
2023-04-16T02:48:13.933Z,9.40
2023-04-16T02:49:13.901Z,9.39
2023-04-16T02:50:13.913Z,9.39
2023-04-16T02:51:13.886Z,9.40
2023-04-16T02:52:15.537Z,9.39
2023-04-16T02:53:13.863Z,9.38
2023-04-16T02:54:13.838Z,9.35
2023-04-16T02:55:13.855Z,9.35
2023-04-16T02:56:13.817Z,9.38
2023-04-16T02:57:13.819Z,9.39
2023-04-16T02:58:13.803Z,9.39
2023-04-16T02:59:13.790Z,9.40
2023-04-16T03:00:13.796Z,9.42
2023-04-16T03:01:13.812Z,9.43
2023-04-16T03:02:13.785Z,9.46
2023-04-16T03:03:20.365Z,9.45
2023-04-16T03:04:13.781Z,9.45
2023-04-16T03:05:13.722Z,9.48
2023-04-16T03:06:13.736Z,9.49
2023-04-16T03:07:13.711Z,9.46
2023-04-16T03:08:13.688Z,9.48
2023-04-16T03:09:13.678Z,9.48
2023-04-16T03:10:13.668Z,9.48
2023-04-16T03:11:13.654Z,9.46
2023-04-16T03:12:13.656Z,9.46
2023-04-16T03:13:13.640Z,9.43
2023-04-16T03:14:13.619Z,9.46
2023-04-16T03:15:13.640Z,9.46
2023-04-16T03:16:13.651Z,9.46
2023-04-16T03:17:13.608Z,9.46
2023-04-16T03:18:13.609Z,9.43
2023-04-16T03:19:13.577Z,9.45
2023-04-16T03:20:13.550Z,9.46
2023-04-16T03:21:13.538Z,9.43
2023-04-16T03:22:13.579Z,9.46
2023-04-16T03:23:13.521Z,9.46
2023-04-16T03:24:13.503Z,9.45
2023-04-16T03:25:13.493Z,9.46
2023-04-16T03:26:13.478Z,9.45
2023-04-16T03:27:13.473Z,9.48
2023-04-16T03:28:13.483Z,9.49
2023-04-16T03:29:13.459Z,9.49
2023-04-16T03:30:13.437Z,9.49
2023-04-16T03:31:13.446Z,9.49
2023-04-16T03:32:13.417Z,9.49
2023-04-16T03:33:13.437Z,9.50
2023-04-16T03:34:13.403Z,9.48
2023-04-16T03:35:13.391Z,9.49
2023-04-16T03:36:13.380Z,9.48
2023-04-16T03:37:13.373Z,9.49
2023-04-16T03:38:13.351Z,9.50
2023-04-16T03:39:13.374Z,9.53
2023-04-16T03:40:13.326Z,9.52
2023-04-16T03:41:13.330Z,9.53
2023-04-16T03:42:13.302Z,9.53
2023-04-16T03:43:13.311Z,9.53
2023-04-16T03:44:13.309Z,9.52
2023-04-16T03:45:13.275Z,9.53
2023-04-16T03:46:13.294Z,9.52
2023-04-16T03:47:13.252Z,9.50
2023-04-16T03:48:13.237Z,9.52
2023-04-16T03:49:13.254Z,9.50
2023-04-16T03:50:13.220Z,9.52
2023-04-16T03:51:13.209Z,9.50
2023-04-16T03:52:13.195Z,9.50
2023-04-16T03:53:13.172Z,9.50
2023-04-16T03:54:13.199Z,9.52
2023-04-16T03:55:13.158Z,9.50
2023-04-16T03:56:13.154Z,9.49
2023-04-16T03:57:13.143Z,9.50
2023-04-16T03:58:13.135Z,9.50
2023-04-16T03:59:13.117Z,9.49
2023-04-16T04:00:13.161Z,9.46
2023-04-16T04:01:13.096Z,9.48
2023-04-16T04:02:13.270Z,9.48
2023-04-16T04:03:13.307Z,9.46
2023-04-16T04:04:13.213Z,9.46
2023-04-16T04:05:13.054Z,9.48
2023-04-16T04:06:13.085Z,9.49
2023-04-16T04:07:13.034Z,9.50
2023-04-16T04:08:13.030Z,9.49
2023-04-16T04:09:13.038Z,9.48
2023-04-16T04:10:13.003Z,9.48
2023-04-16T04:11:13.010Z,9.48
2023-04-16T04:12:13.019Z,9.46
2023-04-16T04:13:13.011Z,9.46
2023-04-16T04:14:12.957Z,9.45
2023-04-16T04:15:12.981Z,9.45
2023-04-16T04:16:13.017Z,9.43
2023-04-16T04:17:12.922Z,9.42
2023-04-16T04:18:12.905Z,9.39
2023-04-16T04:19:12.894Z,9.39
2023-04-16T04:20:12.917Z,9.42
2023-04-16T04:21:12.869Z,9.42
2023-04-16T04:22:12.878Z,9.39
2023-04-16T04:23:12.899Z,9.42
2023-04-16T04:24:13.080Z,9.40
2023-04-16T04:25:12.846Z,9.39
2023-04-16T04:26:12.830Z,9.35
2023-04-16T04:27:12.803Z,9.38
2023-04-16T04:28:12.793Z,9.35
2023-04-16T04:29:12.808Z,9.32
2023-04-16T04:30:12.768Z,9.31
2023-04-16T04:31:12.776Z,9.32
2023-04-16T04:32:12.744Z,9.32
2023-04-16T04:33:12.738Z,9.32
2023-04-16T04:34:12.748Z,9.32
2023-04-16T04:35:12.732Z,9.32
2023-04-16T04:36:12.704Z,9.30
2023-04-16T04:37:12.701Z,9.31
2023-04-16T04:38:15.569Z,9.31
2023-04-16T04:39:12.689Z,9.31
2023-04-16T04:40:12.687Z,9.32
2023-04-16T04:41:12.654Z,9.31
2023-04-16T04:42:12.632Z,9.32
2023-04-16T04:43:12.633Z,9.32
2023-04-16T04:44:12.619Z,9.32
2023-04-16T04:45:12.635Z,9.32
2023-04-16T04:46:12.689Z,9.32
2023-04-16T04:47:12.577Z,9.31
2023-04-16T04:48:12.568Z,9.30
2023-04-16T04:49:12.555Z,9.31
2023-04-16T04:50:12.555Z,9.30
2023-04-16T04:51:12.559Z,9.28
2023-04-16T04:52:12.523Z,9.25
2023-04-16T04:53:12.514Z,9.27
2023-04-16T04:54:12.508Z,9.25
2023-04-16T04:55:12.488Z,9.24
2023-04-16T04:56:13.229Z,9.24
2023-04-16T04:57:12.472Z,9.24
2023-04-16T04:58:12.482Z,9.23
2023-04-16T04:59:12.450Z,9.23
2023-04-16T05:00:12.433Z,9.23
2023-04-16T05:01:12.469Z,9.21
2023-04-16T05:02:12.467Z,9.21
2023-04-16T05:03:12.506Z,9.23
2023-04-16T05:04:12.500Z,9.24
2023-04-16T05:05:12.416Z,9.24
2023-04-16T05:06:12.385Z,9.24
2023-04-16T05:07:12.394Z,9.27
2023-04-16T05:08:12.368Z,9.25
2023-04-16T05:09:12.347Z,9.27
2023-04-16T05:10:12.332Z,9.28
2023-04-16T05:11:12.310Z,9.27
2023-04-16T05:12:12.298Z,9.27
2023-04-16T05:13:12.309Z,9.27
2023-04-16T05:14:12.295Z,9.28
2023-04-16T05:15:12.274Z,9.30
2023-04-16T05:16:12.279Z,9.31
2023-04-16T05:17:12.249Z,9.31
2023-04-16T05:18:12.292Z,9.31
2023-04-16T05:19:12.412Z,9.30
2023-04-16T05:20:12.236Z,9.28
2023-04-16T05:21:12.204Z,9.27
2023-04-16T05:22:12.205Z,9.27
2023-04-16T05:23:12.188Z,9.27
2023-04-16T05:24:14.403Z,9.28
2023-04-16T05:25:12.168Z,9.28
2023-04-16T05:26:12.150Z,9.27
2023-04-16T05:27:12.159Z,9.27
2023-04-16T05:28:12.135Z,9.25
2023-04-16T05:29:12.271Z,9.25
2023-04-16T05:30:12.156Z,9.25
2023-04-16T05:31:12.135Z,9.25
2023-04-16T05:32:12.087Z,9.25
2023-04-16T05:33:12.075Z,9.27
2023-04-16T05:34:12.065Z,9.28
2023-04-16T05:35:12.101Z,9.30
2023-04-16T05:36:12.048Z,9.30
2023-04-16T05:37:12.037Z,9.30
2023-04-16T05:38:12.024Z,9.31
2023-04-16T05:39:12.128Z,9.34
2023-04-16T05:40:12.006Z,9.35
2023-04-16T05:41:11.999Z,9.35
2023-04-16T05:42:11.973Z,9.35
2023-04-16T05:43:11.958Z,9.35
2023-04-16T05:44:11.960Z,9.34
2023-04-16T05:45:11.941Z,9.32
2023-04-16T05:46:12.029Z,9.34
2023-04-16T05:47:11.918Z,9.35
2023-04-16T05:48:11.949Z,9.31
2023-04-16T05:49:12.062Z,9.34
2023-04-16T05:50:11.939Z,9.32
2023-04-16T05:51:11.888Z,9.28
2023-04-16T05:52:11.884Z,9.28
2023-04-16T05:53:11.852Z,9.30
2023-04-16T05:54:11.835Z,9.31
2023-04-16T05:55:11.838Z,9.31
2023-04-16T05:56:11.832Z,9.32
2023-04-16T05:57:11.822Z,9.34
2023-04-16T05:58:11.795Z,9.38
2023-04-16T05:59:12.124Z,9.39
2023-04-16T06:00:11.771Z,9.40
2023-04-16T06:01:11.788Z,9.40
2023-04-16T06:02:11.854Z,9.34
2023-04-16T06:03:11.837Z,9.35
2023-04-16T06:04:11.971Z,9.34
2023-04-16T06:05:18.370Z,9.31
2023-04-16T06:06:11.701Z,9.31
2023-04-16T06:07:13.446Z,9.34
2023-04-16T06:08:11.742Z,9.34
2023-04-16T06:09:11.930Z,9.39
2023-04-16T06:10:11.729Z,9.38
2023-04-16T06:11:11.692Z,9.38
2023-04-16T06:12:11.695Z,9.40
2023-04-16T06:13:11.652Z,9.42
2023-04-16T06:14:11.639Z,9.45
2023-04-16T06:15:11.632Z,9.46
2023-04-16T06:16:11.632Z,9.46
2023-04-16T06:17:11.627Z,9.49
2023-04-16T06:18:11.686Z,9.50
2023-04-16T06:19:11.792Z,9.52
2023-04-16T06:20:11.590Z,9.57
2023-04-16T06:21:11.559Z,9.60
2023-04-16T06:22:11.571Z,9.61
2023-04-16T06:23:11.538Z,9.66
2023-04-16T06:24:11.509Z,9.68
2023-04-16T06:25:11.582Z,9.68
2023-04-16T06:26:11.485Z,9.68
2023-04-16T06:27:11.516Z,9.71
2023-04-16T06:28:11.462Z,9.71
2023-04-16T06:29:11.636Z,9.71
2023-04-16T06:30:11.439Z,9.73
2023-04-16T06:31:11.435Z,9.78
2023-04-16T06:32:11.419Z,9.82
2023-04-16T06:33:11.450Z,9.82
2023-04-16T06:34:11.406Z,9.86
2023-04-16T06:35:11.378Z,9.88
2023-04-16T06:36:11.526Z,9.91
2023-04-16T06:37:11.360Z,9.91
2023-04-16T06:38:11.353Z,9.91
2023-04-16T06:39:11.656Z,9.93
2023-04-16T06:40:11.341Z,9.96
2023-04-16T06:41:11.333Z,9.99
2023-04-16T06:42:11.304Z,9.99
2023-04-16T06:43:11.301Z,10.01
2023-04-16T06:44:11.281Z,9.94
2023-04-16T06:45:11.274Z,9.86
2023-04-16T06:46:11.260Z,9.86
2023-04-16T06:47:11.471Z,9.86
2023-04-16T06:48:11.237Z,9.91
2023-04-16T06:49:11.505Z,9.89
2023-04-16T06:50:11.226Z,9.91
2023-04-16T06:51:11.208Z,9.89
2023-04-16T06:52:11.196Z,9.85
2023-04-16T06:53:11.210Z,9.91
2023-04-16T06:54:11.177Z,9.94
2023-04-16T06:55:11.168Z,9.99
2023-04-16T06:56:11.161Z,10.03
2023-04-16T06:57:11.168Z,10.07
2023-04-16T06:58:11.129Z,10.04
2023-04-16T06:59:11.323Z,10.06
2023-04-16T07:00:11.104Z,10.00
2023-04-16T07:01:11.126Z,9.93
2023-04-16T07:02:11.204Z,9.93
2023-04-16T07:03:11.245Z,10.01
2023-04-16T07:04:11.131Z,10.04
2023-04-16T07:05:11.048Z,10.12
2023-04-16T07:06:11.116Z,10.18
2023-04-16T07:07:11.055Z,10.32
2023-04-16T07:08:11.537Z,10.37
2023-04-16T07:09:11.431Z,10.55
2023-04-16T07:10:11.072Z,10.65
2023-04-16T07:11:11.072Z,10.74
2023-04-16T07:12:11.052Z,10.63
2023-04-16T07:13:11.078Z,10.39
2023-04-16T07:14:11.450Z,10.36
2023-04-16T07:15:11.196Z,10.36
2023-04-16T07:16:10.993Z,10.33
2023-04-16T07:17:10.942Z,10.12
2023-04-16T07:18:10.930Z,10.00
2023-04-16T07:19:11.106Z,9.99
2023-04-16T07:20:10.883Z,10.04
2023-04-16T07:21:10.863Z,10.19
2023-04-16T07:22:10.868Z,10.42
2023-04-16T07:23:10.845Z,10.56
2023-04-16T07:24:10.844Z,10.71
2023-04-16T07:25:10.855Z,10.74
2023-04-16T07:26:10.816Z,10.80
2023-04-16T07:27:10.824Z,10.74
2023-04-16T07:28:10.797Z,10.65
2023-04-16T07:29:10.918Z,10.55
2023-04-16T07:30:10.795Z,10.55
2023-04-16T07:31:10.781Z,10.47
2023-04-16T07:32:11.564Z,10.46
2023-04-16T07:33:10.808Z,10.55
2023-04-16T07:34:10.934Z,10.58
2023-04-16T07:35:10.723Z,10.62
2023-04-16T07:36:10.714Z,10.65
2023-04-16T07:37:10.700Z,10.63
2023-04-16T07:38:10.693Z,10.70
2023-04-16T07:39:10.838Z,10.77
2023-04-16T07:40:10.678Z,10.73
2023-04-16T07:41:10.659Z,10.71
2023-04-16T07:42:10.647Z,10.68
2023-04-16T07:43:10.700Z,10.56
2023-04-16T07:44:10.787Z,10.53
2023-04-16T07:45:10.788Z,10.60
2023-04-16T07:46:10.698Z,10.66
2023-04-16T07:47:10.604Z,10.70
2023-04-16T07:48:10.594Z,10.73
2023-04-16T07:49:10.729Z,10.76
2023-04-16T07:50:10.560Z,10.81
2023-04-16T07:51:10.558Z,10.92
2023-04-16T07:52:10.541Z,11.02
2023-04-16T07:53:10.531Z,11.10
2023-04-16T07:54:10.634Z,10.99
2023-04-16T07:55:10.503Z,10.94
2023-04-16T07:56:10.493Z,10.92
2023-04-16T07:57:10.481Z,10.94
2023-04-16T07:58:10.471Z,10.95
2023-04-16T07:59:22.079Z,10.88
2023-04-16T08:00:10.493Z,10.86
2023-04-16T08:01:10.434Z,10.95
2023-04-16T08:02:10.488Z,10.78
2023-04-16T08:03:10.533Z,10.80
2023-04-16T08:04:10.575Z,10.88
2023-04-16T08:05:10.522Z,10.99
2023-04-16T08:06:10.392Z,11.10
2023-04-16T08:07:10.372Z,11.25
2023-04-16T08:08:10.357Z,11.27
2023-04-16T08:09:10.591Z,11.38
2023-04-16T08:10:10.359Z,11.47
2023-04-16T08:11:10.325Z,11.57
2023-04-16T08:12:10.320Z,11.62
2023-04-16T08:13:10.305Z,11.65
2023-04-16T08:14:10.302Z,11.78
2023-04-16T08:15:10.285Z,11.93
2023-04-16T08:16:10.364Z,12.04
2023-04-16T08:17:10.260Z,12.12
2023-04-16T08:18:10.302Z,12.08
2023-04-16T08:19:10.622Z,11.97
2023-04-16T08:20:12.198Z,12.02
2023-04-16T08:21:10.266Z,12.12
2023-04-16T08:22:10.224Z,12.24
2023-04-16T08:23:10.203Z,12.01
2023-04-16T08:24:10.191Z,12.01
2023-04-16T08:25:10.199Z,11.71
2023-04-16T08:26:10.165Z,11.86
2023-04-16T08:27:18.316Z,12.01
2023-04-16T08:28:10.153Z,12.13
2023-04-16T08:29:10.346Z,12.19
2023-04-16T08:30:10.119Z,12.29
2023-04-16T08:31:10.161Z,12.08
2023-04-16T08:32:10.135Z,11.83
2023-04-16T08:33:10.146Z,11.97
2023-04-16T08:34:10.084Z,12.08
2023-04-16T08:35:10.072Z,12.11
2023-04-16T08:36:10.062Z,11.82
2023-04-16T08:37:10.079Z,11.85
2023-04-16T08:38:10.041Z,11.74
2023-04-16T08:39:10.441Z,11.62
2023-04-16T08:40:10.018Z,11.62
2023-04-16T08:41:10.003Z,11.61
2023-04-16T08:42:10.015Z,11.77
2023-04-16T08:43:09.977Z,11.85
2023-04-16T08:44:10.018Z,11.96
2023-04-16T08:45:09.959Z,12.05
2023-04-16T08:46:10.101Z,12.12
2023-04-16T08:47:09.936Z,12.13
2023-04-16T08:48:09.922Z,12.15
2023-04-16T08:49:10.096Z,12.27
2023-04-16T08:50:09.930Z,12.42
2023-04-16T08:51:09.951Z,12.64
2023-04-16T08:52:09.883Z,12.88
2023-04-16T08:53:09.872Z,12.95
2023-04-16T08:54:09.862Z,13.02
2023-04-16T08:55:09.850Z,12.99
2023-04-16T08:56:09.868Z,13.02
2023-04-16T08:57:09.823Z,12.97
2023-04-16T08:58:09.819Z,13.04
2023-04-16T08:59:10.045Z,13.17
2023-04-16T09:00:09.844Z,13.22
2023-04-16T09:01:09.785Z,13.36
2023-04-16T09:02:09.806Z,13.30
2023-04-16T09:03:09.832Z,13.29
2023-04-16T09:04:09.917Z,13.15
2023-04-16T09:05:09.764Z,13.00
2023-04-16T09:06:09.758Z,12.89
2023-04-16T09:07:09.720Z,12.95
2023-04-16T09:08:09.709Z,12.88
2023-04-16T09:09:10.076Z,12.81
2023-04-16T09:10:09.705Z,12.75
2023-04-16T09:11:09.669Z,12.77
2023-04-16T09:12:09.660Z,12.57
2023-04-16T09:13:09.653Z,12.34
2023-04-16T09:14:09.648Z,12.33
2023-04-16T09:15:09.656Z,12.41
2023-04-16T09:16:09.643Z,12.54
2023-04-16T09:17:09.612Z,12.66
2023-04-16T09:18:09.592Z,12.87
2023-04-16T09:19:09.887Z,13.06
2023-04-16T09:20:09.595Z,13.32
2023-04-16T09:21:09.572Z,13.55
2023-04-16T09:22:09.559Z,13.65
2023-04-16T09:23:09.574Z,13.65
2023-04-16T09:24:09.551Z,13.61
2023-04-16T09:25:09.529Z,13.58
2023-04-16T09:26:09.518Z,13.54
2023-04-16T09:27:09.556Z,13.63
2023-04-16T09:28:09.489Z,13.84
2023-04-16T09:29:09.774Z,13.74
2023-04-16T09:30:09.464Z,13.69
2023-04-16T09:31:09.449Z,13.80
2023-04-16T09:32:09.615Z,13.89
2023-04-16T09:33:09.452Z,13.95
2023-04-16T09:34:09.420Z,13.95
2023-04-16T09:35:09.424Z,14.10
2023-04-16T09:36:09.423Z,14.25
2023-04-16T09:37:09.407Z,14.35
2023-04-16T09:38:09.374Z,14.42
2023-04-16T09:39:09.542Z,14.57
2023-04-16T09:40:09.361Z,14.50
2023-04-16T09:41:09.365Z,14.46
2023-04-16T09:42:09.363Z,14.61
2023-04-16T09:43:09.326Z,14.69
2023-04-16T09:44:09.311Z,14.74
2023-04-16T09:45:09.318Z,14.93
2023-04-16T09:46:09.379Z,15.06
2023-04-16T09:47:09.308Z,15.05
2023-04-16T09:48:09.265Z,15.06
2023-04-16T09:49:09.522Z,15.08
2023-04-16T09:50:10.572Z,15.19
2023-04-16T09:51:09.236Z,15.28
2023-04-16T09:52:09.221Z,15.28
2023-04-16T09:53:09.235Z,15.08
2023-04-16T09:54:09.203Z,14.67
2023-04-16T09:55:09.195Z,14.56
2023-04-16T09:56:09.202Z,14.57
2023-04-16T09:57:09.198Z,14.49
2023-04-16T09:58:09.161Z,14.67
2023-04-16T09:59:09.343Z,14.84
2023-04-16T10:00:09.151Z,14.91
2023-04-16T10:01:09.144Z,15.15
2023-04-16T10:02:15.866Z,15.15
2023-04-16T10:03:09.215Z,15.27
2023-04-16T10:04:09.188Z,15.45
2023-04-16T10:05:09.160Z,15.63
2023-04-16T10:06:09.071Z,15.76
2023-04-16T10:07:09.064Z,15.24
2023-04-16T10:08:09.070Z,15.20
2023-04-16T10:09:09.318Z,15.33
2023-04-16T10:10:09.041Z,15.49
2023-04-16T10:11:09.018Z,15.57
2023-04-16T10:12:09.011Z,15.63
2023-04-16T10:13:09.022Z,15.66
2023-04-16T10:14:08.981Z,15.70
2023-04-16T10:15:08.974Z,15.81
2023-04-16T10:16:08.969Z,15.76
2023-04-16T10:17:09.060Z,15.79
2023-04-16T10:18:08.950Z,15.74
2023-04-16T10:19:09.311Z,15.57
2023-04-16T10:20:08.925Z,15.39
2023-04-16T10:21:08.914Z,15.43
2023-04-16T10:22:08.906Z,15.48
2023-04-16T10:23:08.899Z,15.63
2023-04-16T10:24:08.882Z,15.81
2023-04-16T10:25:08.902Z,15.84
2023-04-16T10:26:08.851Z,16.00
2023-04-16T10:27:08.842Z,16.11
2023-04-16T10:28:08.834Z,16.27
2023-04-16T10:29:09.197Z,16.44
2023-04-16T10:30:08.838Z,16.60
2023-04-16T10:31:08.910Z,16.74
2023-04-16T10:32:08.785Z,16.86
2023-04-16T10:33:08.797Z,17.03
2023-04-16T10:34:08.795Z,17.18
2023-04-16T10:35:08.758Z,17.28
2023-04-16T10:36:08.742Z,17.33
2023-04-16T10:37:08.726Z,17.23
2023-04-16T10:38:08.721Z,16.83
2023-04-16T10:39:08.895Z,16.60
2023-04-16T10:40:08.716Z,16.45
2023-04-16T10:41:08.691Z,16.45
2023-04-16T10:42:08.673Z,16.37
2023-04-16T10:43:08.665Z,16.40
2023-04-16T10:44:08.656Z,16.33
2023-04-16T10:45:08.647Z,16.22
2023-04-16T10:46:08.665Z,16.26
2023-04-16T10:47:08.628Z,16.25
2023-04-16T10:48:08.621Z,16.35
2023-04-16T10:49:08.820Z,16.58
2023-04-16T10:50:08.606Z,16.81
2023-04-16T10:51:08.604Z,17.03
2023-04-16T10:52:08.566Z,17.20
2023-04-16T10:53:08.571Z,17.36
2023-04-16T10:54:08.543Z,17.38
2023-04-16T10:55:08.532Z,17.51
2023-04-16T10:56:08.550Z,17.43
2023-04-16T10:57:08.515Z,17.51
2023-04-16T10:58:08.516Z,17.66
2023-04-16T10:59:08.608Z,17.69
2023-04-16T11:00:08.477Z,17.71
2023-04-16T11:01:08.499Z,17.79
2023-04-16T11:02:08.633Z,17.84
2023-04-16T11:03:08.607Z,17.85
2023-04-16T11:04:08.686Z,17.99
2023-04-16T11:05:08.423Z,18.03
2023-04-16T11:06:08.414Z,17.95
2023-04-16T11:07:08.417Z,17.78
2023-04-16T11:08:08.418Z,17.63
2023-04-16T11:09:08.412Z,17.66
2023-04-16T11:10:08.368Z,17.67
2023-04-16T11:11:08.366Z,17.53
2023-04-16T11:12:08.371Z,17.54
2023-04-16T11:13:08.347Z,17.66
2023-04-16T11:14:08.323Z,17.84
2023-04-16T11:15:08.337Z,18.07
2023-04-16T11:16:08.317Z,18.25
2023-04-16T11:17:08.324Z,18.33
2023-04-16T11:18:08.383Z,18.55
2023-04-16T11:19:08.360Z,18.65
2023-04-16T11:20:18.855Z,18.65
2023-04-16T11:21:08.254Z,18.76
2023-04-16T11:22:08.260Z,18.92
2023-04-16T11:23:08.223Z,18.99
2023-04-16T11:24:08.214Z,19.06
2023-04-16T11:25:08.208Z,19.08
2023-04-16T11:26:08.210Z,19.06
2023-04-16T11:27:08.189Z,19.06
2023-04-16T11:28:08.194Z,18.99
2023-04-16T11:29:08.331Z,19.05
2023-04-16T11:30:08.145Z,19.20
2023-04-16T11:31:08.224Z,19.32
2023-04-16T11:32:08.123Z,19.38
2023-04-16T11:33:08.149Z,19.55
2023-04-16T11:34:08.109Z,19.75
2023-04-16T11:35:08.096Z,19.75
2023-04-16T11:36:08.080Z,19.88
2023-04-16T11:37:08.081Z,20.00
2023-04-16T11:38:08.138Z,19.97
2023-04-16T11:39:08.196Z,19.63
2023-04-16T11:40:08.067Z,19.51
2023-04-16T11:41:08.116Z,19.32
2023-04-16T11:42:08.028Z,19.13
2023-04-16T11:43:08.029Z,18.92
2023-04-16T11:44:08.030Z,18.76
2023-04-16T11:45:07.982Z,18.58
2023-04-16T11:46:20.415Z,18.54
2023-04-16T11:47:08.032Z,18.39
2023-04-16T11:48:10.603Z,18.28
2023-04-16T11:49:08.037Z,18.34
2023-04-16T11:50:07.959Z,18.31
2023-04-16T11:51:07.947Z,18.25
2023-04-16T11:52:07.958Z,18.15
2023-04-16T11:53:07.967Z,18.07
2023-04-16T11:54:10.356Z,17.97
2023-04-16T11:55:07.973Z,17.99
2023-04-16T11:56:08.078Z,17.94
2023-04-16T11:57:07.981Z,17.92
2023-04-16T11:58:07.844Z,17.91
2023-04-16T11:59:08.356Z,17.82
2023-04-16T12:00:10.000Z,17.70
2023-04-16T12:01:07.872Z,17.63
2023-04-16T12:02:08.039Z,17.47
2023-04-16T12:03:08.015Z,17.35
2023-04-16T12:04:08.032Z,17.17
2023-04-16T12:05:07.832Z,17.10
2023-04-16T12:06:07.792Z,17.03
2023-04-16T12:07:07.773Z,16.86
2023-04-16T12:08:07.775Z,16.77
2023-04-16T12:09:07.890Z,16.67
2023-04-16T12:10:07.839Z,16.58
2023-04-16T12:11:07.782Z,16.49
2023-04-16T12:12:07.758Z,16.41
2023-04-16T12:13:07.779Z,16.31
2023-04-16T12:14:07.772Z,16.26
2023-04-16T12:15:07.673Z,16.22
2023-04-16T12:16:07.690Z,16.07
2023-04-16T12:17:07.846Z,16.01
2023-04-16T12:18:07.659Z,16.00
2023-04-16T12:19:07.669Z,15.96
2023-04-16T12:20:07.612Z,15.85
2023-04-16T12:21:07.628Z,15.79
2023-04-16T12:22:07.866Z,15.74
2023-04-16T12:23:07.600Z,15.68
2023-04-16T12:24:07.560Z,15.68
2023-04-16T12:25:59.442Z,15.72
2023-04-16T12:27:00.424Z,15.75
2023-04-16T12:28:00.450Z,15.81
2023-04-16T12:29:00.395Z,15.86
2023-04-16T12:30:00.396Z,15.81
2023-04-16T12:31:00.443Z,15.79
2023-04-16T12:32:00.375Z,15.82
2023-04-16T12:33:00.402Z,15.86
2023-04-16T12:34:00.356Z,15.85
2023-04-16T12:35:00.354Z,15.72
2023-04-16T12:36:00.334Z,15.59
2023-04-16T12:37:00.317Z,15.51
2023-04-16T12:38:00.314Z,15.39
2023-04-16T12:39:00.310Z,15.35
2023-04-16T12:40:00.286Z,15.30
2023-04-16T12:41:00.272Z,15.24
2023-04-16T12:42:00.263Z,15.23
2023-04-16T12:43:00.257Z,15.23
2023-04-16T12:44:00.341Z,15.28
2023-04-16T12:45:00.262Z,15.31
2023-04-16T12:46:02.215Z,15.24
2023-04-16T12:47:00.252Z,15.13
2023-04-16T12:48:00.265Z,15.08
2023-04-16T12:49:00.276Z,15.12
2023-04-16T12:50:00.191Z,15.15
2023-04-16T12:51:00.180Z,15.21
2023-04-16T12:52:00.225Z,15.26
2023-04-16T12:53:00.154Z,15.43
2023-04-16T12:54:00.211Z,15.68
2023-04-16T12:55:00.151Z,15.99
2023-04-16T12:56:00.177Z,16.22
2023-04-16T12:57:00.219Z,16.40
2023-04-16T12:58:00.256Z,16.45
2023-04-16T12:59:00.169Z,16.41
2023-04-16T13:00:00.473Z,16.31
2023-04-16T13:01:00.368Z,16.30
2023-04-16T13:02:00.268Z,16.26
2023-04-16T13:03:00.244Z,16.09
2023-04-16T13:04:00.223Z,15.99
2023-04-16T13:05:00.063Z,15.84
2023-04-16T13:06:00.084Z,15.74
2023-04-16T13:07:00.062Z,15.66